SNEZKA Weather Reports


Display with metric or nautical units.
time (UTC)temp
F
wind
direction
speed
MPH
gust
MPH
rain 1hr
in
rain 24hr
in
rain mn
in
humidity
%
barometer
mb
20240615072012 46 210 40.0 0.0 0.00 0.00 0.00 75
20240615062012 45 220 38.0 54.0 0.00 0.00 0.00 81
20240615052011 43 220 36.0 47.0 0.00 0.00 0.00 99
20240615042011 43 200 33.0 0.0 0.00 0.00 0.00 99
20240615032036 43 200 29.0 0.0 0.00 0.00 0.00 99
20240615022038 43 210 33.0 0.0 0.00 0.00 0.00 99
20240615012012 43 210 22.0 0.0 0.00 0.00 0.00 99
20240615002011 43 210 29.0 0.0 0.00 0.00 0.00 99
20240614232011 43 220 26.0 0.0 0.00 0.00 0.00 93
20240614222013 43 210 26.0 0.0 0.00 0.00 0.00 81
20240614212010 43 220 24.0 0.0 0.00 0.00 0.00 81
20240614202012 43 250 18.0 33.0 0.00 0.00 0.00 81
20240614192011 43 280 14.0 31.0 0.00 0.00 0.00 81
20240614182014 41 230 12.0 26.0 0.00 0.00 0.00 93
20240614172011 43 240 20.0 33.0 0.00 0.00 0.00 81
20240614162011 43 260 9.0 26.0 0.00 0.00 0.00 81
20240614152011 43 260 9.0 20.0 0.00 0.00 0.00 75
20240614142012 43 270 9.0 20.0 0.00 0.00 0.00 65
20240614132013 43 220 20.0 0.0 0.00 0.00 0.00 65
20240614122011 43 270 9.0 24.0 0.00 0.00 0.00 70
20240614112012 43 270 9.0 0.0 0.00 0.00 0.00 70
20240614102012 43 250 7.0 0.0 0.00 0.00 0.00 60
20240614092011 41 240 9.0 20.0 0.00 0.00 0.00 75
20240614082012 39 200 7.0 0.0 0.00 0.00 0.00 75